Time;durP1;ratioP1;P1;durP2;ratioP2;P2;SDS_P1;SDS_P2;PMS_P1;PMS_P2;Temp;Humidity;BMP_temperature;BMP_pressure;BME280_temperature;BME280_humidity;BME280_pressure;Samples;Min_cycle;Max_cycle;Signal;HPM_P1;HPM_P2
2022/02/21 00:01:33;;;;;;;5.18;2.35;;;13.00;48.40;;;;;;6200794;28;20030;-72
2022/02/21 00:04:34;;;;;;;4.63;2.10;;;13.00;48.30;;;;;;6193587;28;20040;-74
2022/02/21 00:07:35;;;;;;;6.22;2.15;;;13.00;48.20;;;;;;6194941;28;20101;-72
2022/02/21 00:10:36;;;;;;;4.50;1.42;;;13.00;48.10;;;;;;6201130;28;20047;-72
2022/02/21 00:13:37;;;;;;;4.82;2.20;;;13.00;47.90;;;;;;6201386;28;20038;-72
2022/02/21 00:16:38;;;;;;;5.75;1.92;;;13.00;47.90;;;;;;6200756;28;20038;-72
2022/02/21 00:19:39;;;;;;;6.88;1.77;;;13.00;48.10;;;;;;6201638;28;20112;-73
2022/02/21 00:22:41;;;;;;;3.03;1.42;;;12.90;48.10;;;;;;6212785;28;20027;-72
2022/02/21 00:25:42;;;;;;;5.75;1.80;;;12.80;48.20;;;;;;6216202;28;20030;-72
2022/02/21 00:28:43;;;;;;;4.88;1.73;;;12.80;48.20;;;;;;6199537;28;20049;-72
2022/02/21 00:31:44;;;;;;;3.33;1.38;;;12.70;48.40;;;;;;6199311;28;20038;-71
2022/02/21 00:34:45;;;;;;;7.75;1.80;;;12.70;48.30;;;;;;6199931;28;20038;-73
2022/02/21 00:37:46;;;;;;;3.75;1.40;;;12.70;48.30;;;;;;6195727;28;20111;-73
2022/02/21 00:40:47;;;;;;;1.90;1.20;;;12.70;48.30;;;;;;6193673;28;20463;-72
2022/02/21 00:43:47;;;;;;;3.47;1.30;;;12.70;48.20;;;;;;6200886;28;20092;-72
2022/02/21 00:46:48;;;;;;;5.72;1.45;;;12.70;48.00;;;;;;6199629;28;20034;-72
2022/02/21 00:49:50;;;;;;;3.67;1.50;;;12.80;48.00;;;;;;6200770;28;20034;-72
2022/02/21 00:52:51;;;;;;;2.75;1.33;;;12.80;47.90;;;;;;6209055;28;20495;-72
2022/02/21 00:55:52;;;;;;;3.30;1.20;;;12.90;47.80;;;;;;6179413;28;20049;-72
2022/02/21 00:58:53;;;;;;;2.20;1.45;;;12.90;47.70;;;;;;6215194;28;20061;-72
2022/02/21 01:01:55;;;;;;;2.28;1.33;;;13.00;47.60;;;;;;6173985;28;20093;-73
2022/02/21 01:04:56;;;;;;;6.88;1.80;;;13.00;47.50;;;;;;6200323;28;20092;-72
2022/02/21 01:07:56;;;;;;;6.63;1.35;;;13.10;47.50;;;;;;6199476;28;20072;-72
2022/02/21 01:10:57;;;;;;;5.82;1.60;;;13.10;47.40;;;;;;6198908;28;20125;-73
2022/02/21 01:13:59;;;;;;;4.75;1.88;;;13.20;47.40;;;;;;6193037;28;20392;-72
2022/02/21 01:17:00;;;;;;;2.75;1.45;;;13.20;47.30;;;;;;6192042;28;20038;-73
2022/02/21 01:20:06;;;;;;;9.93;2.25;;;13.20;47.30;;;;;;6199312;28;20053;-72
2022/02/21 01:23:07;;;;;;;4.30;2.05;;;13.20;47.40;;;;;;6196870;28;20035;-72
2022/02/21 01:26:08;;;;;;;4.50;2.38;;;13.10;47.60;;;;;;6198944;28;20030;-72
2022/02/21 01:29:10;;;;;;;6.13;2.72;;;13.00;47.80;;;;;;6213752;28;20054;-72
2022/02/21 01:32:11;;;;;;;2.90;2.10;;;13.00;48.00;;;;;;6214809;28;20415;-72
2022/02/21 01:35:12;;;;;;;5.38;2.03;;;13.00;48.20;;;;;;6199173;28;20447;-74
2022/02/21 01:38:13;;;;;;;5.57;2.28;;;13.00;48.20;;;;;;6199160;28;20042;-73
2022/02/21 01:41:14;;;;;;;5.82;2.17;;;13.00;48.30;;;;;;6174917;28;20042;-72
2022/02/21 01:44:16;;;;;;;4.95;2.22;;;13.00;48.30;;;;;;6185504;28;20042;-73
2022/02/21 01:47:20;;;;;;;5.63;2.33;;;13.00;48.40;;;;;;6198836;28;20117;-71
2022/02/21 01:50:22;;;;;;;6.78;1.95;;;12.90;48.50;;;;;;6192916;28;20027;-72
2022/02/21 01:53:23;;;;;;;8.27;2.60;;;13.00;48.50;;;;;;6163495;28;20043;-72
2022/02/21 01:56:28;;;;;;;5.05;2.13;;;13.00;48.60;;;;;;6197099;28;20053;-72
2022/02/21 01:59:29;;;;;;;7.53;2.92;;;13.00;48.60;;;;;;6214674;28;20037;-72
2022/02/21 02:02:30;;;;;;;6.75;2.72;;;13.00;48.70;;;;;;6202870;28;20077;-72
2022/02/21 02:05:31;;;;;;;3.47;1.95;;;13.00;48.70;;;;;;6198980;28;20042;-72
2022/02/21 02:08:33;;;;;;;6.25;2.53;;;13.00;48.80;;;;;;6214022;28;20069;-72
2022/02/21 02:11:36;;;;;;;8.43;2.58;;;13.00;48.80;;;;;;6198832;28;20141;-71
2022/02/21 02:14:39;;;;;;;8.48;2.70;;;13.00;48.90;;;;;;6214374;28;20433;-71
2022/02/21 02:17:40;;;;;;;6.63;2.92;;;13.00;49.00;;;;;;6214239;28;20066;-71
2022/02/21 02:20:41;;;;;;;6.93;3.30;;;12.90;49.20;;;;;;6157569;28;20043;-71
2022/02/21 02:23:42;;;;;;;4.97;3.00;;;12.80;49.60;;;;;;6199435;28;20050;-71
2022/02/21 02:26:43;;;;;;;8.50;3.75;;;12.70;50.00;;;;;;6196242;28;20097;-71
2022/02/21 02:29:47;;;;;;;8.48;4.43;;;12.70;50.60;;;;;;6178650;28;20073;-72
2022/02/21 02:32:50;;;;;;;9.82;4.05;;;12.60;50.90;;;;;;6198554;28;20058;-72
2022/02/21 02:35:51;;;;;;;9.32;3.65;;;12.40;51.20;;;;;;6180889;28;20043;-72
2022/02/21 02:38:52;;;;;;;11.27;4.50;;;12.40;51.50;;;;;;6197872;28;20534;-72
2022/02/21 02:41:53;;;;;;;8.38;3.65;;;12.30;51.70;;;;;;6199090;28;20050;-71
2022/02/21 02:44:54;;;;;;;8.60;3.90;;;12.30;52.00;;;;;;6195667;28;20041;-72
2022/02/21 02:47:55;;;;;;;8.90;4.10;;;12.30;52.00;;;;;;6195734;28;20034;-72
2022/02/21 02:50:56;;;;;;;9.93;3.63;;;12.30;51.90;;;;;;6181987;28;20065;-72
2022/02/21 02:53:57;;;;;;;8.23;4.15;;;12.30;51.90;;;;;;6197830;28;20051;-72
2022/02/21 02:56:58;;;;;;;11.15;3.67;;;12.40;51.90;;;;;;6200733;28;20049;-72
2022/02/21 02:59:59;;;;;;;7.20;2.95;;;12.40;51.90;;;;;;6169868;28;20058;-72
2022/02/21 03:03:00;;;;;;;6.60;3.17;;;12.50;51.90;;;;;;6197712;28;20039;-71
2022/02/21 03:06:01;;;;;;;7.18;3.60;;;12.50;51.90;;;;;;6203109;28;20468;-71
2022/02/21 03:09:03;;;;;;;8.80;3.75;;;12.60;51.90;;;;;;6196051;28;20040;-71
2022/02/21 03:12:04;;;;;;;9.35;3.20;;;12.60;52.00;;;;;;6202809;28;20046;-72
2022/02/21 03:15:09;;;;;;;9.65;3.22;;;12.60;52.00;;;;;;6201630;28;20121;-71
2022/02/21 03:18:11;;;;;;;9.98;3.67;;;12.70;51.90;;;;;;6200269;28;20481;-72
2022/02/21 03:21:12;;;;;;;7.97;3.22;;;12.70;51.90;;;;;;6196629;28;20042;-71
2022/02/21 03:24:13;;;;;;;8.38;3.13;;;12.70;51.90;;;;;;6217485;28;20097;-72
2022/02/21 03:27:14;;;;;;;8.68;3.05;;;12.70;52.00;;;;;;6214745;28;20042;-71
2022/02/21 03:30:15;;;;;;;4.22;2.70;;;12.80;52.10;;;;;;6218064;28;20088;-71
2022/02/21 03:33:16;;;;;;;5.40;2.50;;;12.80;52.30;;;;;;6201540;28;20030;-71
2022/02/21 03:36:17;;;;;;;5.15;2.35;;;12.90;52.30;;;;;;6200597;28;20359;-71
2022/02/21 03:39:18;;;;;;;6.40;2.90;;;12.70;52.50;;;;;;6186580;28;20031;-73
2022/02/21 03:42:19;;;;;;;6.28;2.90;;;12.60;53.10;;;;;;6199891;28;20045;-73
2022/02/21 03:45:22;;;;;;;16.95;3.22;;;12.50;53.60;;;;;;6217268;28;20367;-72
2022/02/21 03:48:22;;;;;;;8.98;4.13;;;12.40;54.00;;;;;;6202117;28;20046;-71
2022/02/21 03:51:23;;;;;;;9.02;3.97;;;12.40;54.30;;;;;;6192349;28;20046;-72
2022/02/21 03:54:24;;;;;;;7.55;4.50;;;12.30;54.50;;;;;;6201455;28;20486;-72
2022/02/21 03:57:25;;;;;;;10.48;4.72;;;12.30;55.20;;;;;;6217003;28;20379;-72
2022/02/21 04:00:26;;;;;;;16.38;4.70;;;12.30;54.70;;;;;;6202282;28;20529;-72
2022/02/21 04:03:27;;;;;;;7.82;4.28;;;12.30;54.70;;;;;;6194986;28;20034;-72
2022/02/21 04:06:28;;;;;;;9.25;4.65;;;12.30;54.80;;;;;;6190712;28;20416;-72
2022/02/21 04:09:29;;;;;;;9.77;5.00;;;12.30;54.80;;;;;;6199959;28;20062;-72
2022/02/21 04:12:30;;;;;;;11.55;5.18;;;12.40;54.80;;;;;;6185392;28;20434;-72
2022/02/21 04:15:31;;;;;;;10.52;4.95;;;12.40;54.90;;;;;;6215656;28;20371;-72
2022/02/21 04:18:32;;;;;;;12.65;5.47;;;12.40;55.50;;;;;;6202005;28;20073;-72
2022/02/21 04:21:35;;;;;;;8.85;4.78;;;12.40;54.90;;;;;;6194812;28;20446;-72
2022/02/21 04:24:37;;;;;;;17.25;5.03;;;12.40;54.90;;;;;;6200463;28;20044;-72
2022/02/21 04:27:49;;;;;;;12.65;5.65;;;12.40;54.80;;;;;;6195847;28;20061;-72
2022/02/21 04:30:50;;;;;;;17.95;5.68;;;12.40;54.80;;;;;;6211450;28;20042;-70
2022/02/21 04:33:51;;;;;;;13.13;5.55;;;12.40;54.70;;;;;;6192129;28;20049;-71
2022/02/21 04:36:51;;;;;;;10.75;5.38;;;12.40;54.70;;;;;;6194879;28;20034;-72
2022/02/21 04:39:53;;;;;;;10.90;5.18;;;12.40;54.90;;;;;;6195117;28;20031;-71
2022/02/21 04:42:54;;;;;;;12.82;6.25;;;12.40;55.00;;;;;;6178795;28;20042;-72
2022/02/21 04:45:55;;;;;;;12.38;5.30;;;12.40;55.00;;;;;;6191690;28;20062;-71
2022/02/21 04:48:56;;;;;;;12.13;4.82;;;12.40;55.00;;;;;;6209617;28;20034;-71
2022/02/21 04:51:57;;;;;;;10.68;4.93;;;12.40;54.90;;;;;;6193037;28;20459;-72
2022/02/21 04:54:58;;;;;;;8.18;4.28;;;12.50;54.90;;;;;;6214043;28;20113;-72
2022/02/21 04:57:59;;;;;;;7.57;3.67;;;12.50;54.80;;;;;;6213623;28;20038;-72
2022/02/21 05:01:00;;;;;;;8.15;2.70;;;12.50;54.60;;;;;;6214355;28;20058;-72
2022/02/21 05:04:01;;;;;;;7.13;3.22;;;12.50;54.50;;;;;;6198986;28;20467;-72
2022/02/21 05:07:02;;;;;;;4.70;2.75;;;12.40;54.60;;;;;;6197463;28;20054;-72
2022/02/21 05:10:03;;;;;;;3.03;2.10;;;12.40;54.60;;;;;;6197485;28;20117;-71
2022/02/21 05:13:04;;;;;;;3.33;1.60;;;12.40;54.60;;;;;;6200544;28;20057;-71
2022/02/21 05:16:05;;;;;;;4.50;1.98;;;12.30;55.00;;;;;;6198217;28;20038;-71
2022/02/21 05:19:06;;;;;;;4.38;1.63;;;12.30;54.60;;;;;;6191473;28;20164;-72
2022/02/21 05:22:06;;;;;;;6.35;1.75;;;12.20;54.70;;;;;;6198952;28;20108;-72
2022/02/21 05:25:08;;;;;;;3.65;1.88;;;12.20;54.80;;;;;;6196177;28;20518;-73
2022/02/21 05:28:09;;;;;;;9.82;1.98;;;12.20;54.80;;;;;;6193202;28;20475;-71
2022/02/21 05:31:10;;;;;;;3.85;2.03;;;12.30;54.90;;;;;;6213555;28;20050;-71
2022/02/21 05:34:11;;;;;;;4.60;1.58;;;12.30;55.00;;;;;;6197102;28;20337;-71
2022/02/21 05:37:12;;;;;;;8.70;2.15;;;12.30;55.10;;;;;;6195886;28;20542;-72
2022/02/21 05:40:12;;;;;;;4.15;1.70;;;12.30;55.20;;;;;;6184026;28;20383;-72
2022/02/21 05:43:13;;;;;;;3.20;1.27;;;12.30;55.20;;;;;;6198254;28;20042;-71
2022/02/21 05:46:14;;;;;;;9.10;2.20;;;12.30;55.20;;;;;;6198409;28;20125;-73
2022/02/21 05:49:15;;;;;;;3.67;1.92;;;12.20;55.10;;;;;;6213620;28;20034;-72
2022/02/21 05:52:16;;;;;;;5.15;1.50;;;12.20;55.20;;;;;;6211711;28;20040;-72
2022/02/21 05:55:17;;;;;;;5.22;1.35;;;12.20;55.10;;;;;;6197976;28;20038;-72
2022/02/21 05:58:18;;;;;;;1.58;1.27;;;12.20;55.10;;;;;;6198238;28;20038;-72
2022/02/21 06:01:19;;;;;;;5.22;1.55;;;12.20;55.20;;;;;;6197950;28;20113;-72
2022/02/21 06:04:20;;;;;;;4.55;1.60;;;12.20;55.20;;;;;;6171242;28;20035;-72
2022/02/21 06:07:21;;;;;;;2.38;1.23;;;12.20;55.20;;;;;;6195846;28;20037;-73
2022/02/21 06:10:22;;;;;;;2.65;1.55;;;12.10;55.30;;;;;;6195987;28;20162;-72
2022/02/21 06:13:23;;;;;;;5.05;1.77;;;12.10;55.40;;;;;;6189930;28;20044;-72
2022/02/21 06:16:24;;;;;;;4.05;1.55;;;12.10;55.60;;;;;;6189754;28;20046;-72
2022/02/21 06:19:25;;;;;;;1.75;1.33;;;12.10;55.20;;;;;;6205090;28;20057;-71
2022/02/21 06:22:26;;;;;;;2.65;1.30;;;12.00;55.90;;;;;;6164512;28;20050;-72
2022/02/21 06:25:27;;;;;;;4.13;1.80;;;12.00;56.20;;;;;;6190168;28;20125;-72
2022/02/21 06:28:28;;;;;;;3.38;1.40;;;12.00;56.40;;;;;;6198854;28;20130;-72
2022/02/21 06:31:32;;;;;;;3.92;1.50;;;12.00;56.50;;;;;;6182640;28;20044;-72
2022/02/21 06:34:33;;;;;;;2.80;1.55;;;12.00;56.50;;;;;;6209312;28;20037;-72
2022/02/21 06:37:40;;;;;;;3.70;1.65;;;12.00;56.50;;;;;;6194274;28;20119;-72
2022/02/21 06:40:41;;;;;;;7.82;1.80;;;12.00;56.60;;;;;;6193685;28;20567;-72
2022/02/21 06:43:42;;;;;;;5.72;1.98;;;12.10;56.70;;;;;;6189332;28;20121;-72
2022/02/21 06:46:44;;;;;;;6.13;1.77;;;12.10;56.80;;;;;;6187349;28;20042;-72
2022/02/21 06:49:44;;;;;;;6.53;1.75;;;12.10;56.80;;;;;;6194834;28;20166;-72
2022/02/21 06:52:45;;;;;;;5.45;1.70;;;12.00;56.90;;;;;;6210595;28;20030;-72
2022/02/21 06:55:46;;;;;;;3.28;1.50;;;12.00;57.10;;;;;;6194943;28;20046;-71
2022/02/21 06:58:47;;;;;;;3.15;1.88;;;12.00;57.40;;;;;;6184718;28;20038;-71
2022/02/21 07:01:48;;;;;;;7.00;2.15;;;12.00;57.80;;;;;;6211971;28;20034;-71
2022/02/21 07:04:50;;;;;;;6.15;2.15;;;11.80;58.10;;;;;;6202568;28;20043;-71
2022/02/21 07:07:51;;;;;;;3.85;2.17;;;11.80;58.70;;;;;;6199360;28;20038;-72
2022/02/21 07:10:52;;;;;;;8.20;2.38;;;11.70;59.00;;;;;;6216336;28;20395;-74
2022/02/21 07:13:54;;;;;;;5.97;2.15;;;11.70;59.30;;;;;;6195375;28;20045;-73
2022/02/21 07:16:56;;;;;;;7.07;2.40;;;11.70;59.60;;;;;;6195931;28;20494;-73
2022/02/21 07:19:57;;;;;;;6.93;2.53;;;11.50;59.80;;;;;;6195925;28;20069;-72
2022/02/21 07:22:58;;;;;;;2.15;1.67;;;11.50;60.40;;;;;;6198781;28;20026;-72
2022/02/21 07:25:59;;;;;;;7.65;2.25;;;11.50;60.80;;;;;;6200876;28;20494;-72
2022/02/21 07:29:00;;;;;;;5.82;2.47;;;11.60;61.00;;;;;;6199287;28;20038;-73
2022/02/21 07:32:01;;;;;;;10.52;2.70;;;11.70;61.00;;;;;;6212466;28;20388;-72
2022/02/21 07:35:02;;;;;;;9.02;2.38;;;11.70;61.10;;;;;;6199688;28;20046;-72
2022/02/21 07:38:04;;;;;;;4.10;2.00;;;11.80;61.10;;;;;;6190508;28;20038;-72
2022/02/21 07:41:05;;;;;;;7.30;2.17;;;11.80;61.20;;;;;;6197294;28;20464;-72
2022/02/21 07:44:06;;;;;;;7.93;2.85;;;11.90;61.10;;;;;;6198000;28;20034;-72
2022/02/21 07:47:08;;;;;;;4.50;2.25;;;11.90;61.00;;;;;;6196714;28;20038;-73
2022/02/21 07:50:09;;;;;;;6.18;3.05;;;12.00;61.20;;;;;;6198393;28;20034;-73
2022/02/21 07:53:10;;;;;;;4.78;2.22;;;12.00;61.30;;;;;;6198431;28;20108;-73
2022/02/21 07:56:11;;;;;;;7.32;2.63;;;12.00;61.50;;;;;;6198086;28;20038;-72
2022/02/21 07:59:12;;;;;;;6.40;2.97;;;12.00;61.40;;;;;;6198700;28;20056;-74
2022/02/21 08:02:13;;;;;;;7.30;2.20;;;12.00;61.80;;;;;;6201033;28;20121;-74
2022/02/21 08:05:14;;;;;;;3.95;1.90;;;12.10;62.10;;;;;;6210322;28;20042;-73
2022/02/21 08:08:15;;;;;;;5.47;2.45;;;12.00;62.40;;;;;;6187866;28;20043;-72
2022/02/21 08:11:16;;;;;;;6.40;2.60;;;12.00;62.60;;;;;;6214043;28;20057;-74
2022/02/21 08:14:17;;;;;;;5.15;1.17;;;12.00;62.80;;;;;;6199312;28;20034;-74
2022/02/21 08:17:18;;;;;;;2.80;1.30;;;12.00;62.80;;;;;;6198448;28;20100;-72
2022/02/21 08:20:25;;;;;;;1.55;0.32;;;12.00;62.80;;;;;;6214414;28;20125;-71
2022/02/21 08:23:26;;;;;;;0.10;0.10;;;11.90;61.90;;;;;;6192998;28;20026;-73
2022/02/21 08:26:29;;;;;;;0.17;0.17;;;11.70;62.10;;;;;;6199003;28;20096;-73
2022/02/21 08:29:32;;;;;;;0.20;0.13;;;11.50;62.50;;;;;;6197951;28;20452;-73
2022/02/21 08:32:33;;;;;;;0.38;0.10;;;11.40;62.30;;;;;;6198074;28;20081;-74
2022/02/21 08:35:34;;;;;;;0.85;0.35;;;11.30;62.00;;;;;;6196848;28;20038;-71
2022/02/21 08:38:35;;;;;;;2.30;0.40;;;11.20;61.30;;;;;;6194839;28;20411;-71
2022/02/21 08:41:36;;;;;;;2.42;0.82;;;11.10;60.60;;;;;;6213356;28;20404;-73
2022/02/21 08:44:37;;;;;;;1.27;0.57;;;11.00;60.40;;;;;;6197879;28;20049;-72
2022/02/21 08:47:38;;;;;;;12.13;1.00;;;11.10;60.70;;;;;;6197045;28;20467;-73
2022/02/21 08:50:39;;;;;;;4.05;0.88;;;11.20;60.70;;;;;;6198547;28;20464;-71
2022/02/21 08:53:41;;;;;;;1.38;0.68;;;11.20;60.30;;;;;;6192467;28;20034;-72
2022/02/21 08:56:41;;;;;;;4.97;0.73;;;11.30;60.30;;;;;;6197047;28;20069;-74
2022/02/21 08:59:43;;;;;;;3.03;0.73;;;11.40;60.40;;;;;;6212410;28;20042;-74
2022/02/21 09:02:44;;;;;;;6.93;1.10;;;11.60;60.10;;;;;;6179868;28;20048;-74
2022/02/21 09:05:45;;;;;;;3.20;0.63;;;11.70;59.90;;;;;;6197113;28;20044;-72
2022/02/21 09:08:46;;;;;;;11.70;1.50;;;11.80;59.60;;;;;;6197100;28;20130;-73
2022/02/21 09:11:47;;;;;;;7.15;0.70;;;11.90;59.00;;;;;;6196094;28;20097;-72
2022/02/21 09:14:50;;;;;;;9.48;1.13;;;12.00;58.30;;;;;;6179947;28;20052;-72
2022/02/21 09:17:51;;;;;;;8.10;0.85;;;12.20;58.00;;;;;;6197856;28;20097;-74
2022/02/21 09:20:53;;;;;;;5.18;1.15;;;12.30;57.70;;;;;;6196725;28;20120;-74
2022/02/21 09:23:54;;;;;;;7.28;1.30;;;12.40;57.10;;;;;;6194490;28;20375;-72
2022/02/21 09:26:55;;;;;;;12.85;1.77;;;12.40;57.00;;;;;;6189022;28;20031;-72
2022/02/21 09:29:56;;;;;;;6.25;1.33;;;12.40;56.90;;;;;;6196553;28;20057;-73
2022/02/21 09:32:57;;;;;;;6.03;1.23;;;12.40;56.80;;;;;;6192087;28;20045;-73
2022/02/21 09:35:57;;;;;;;8.88;1.27;;;12.50;56.80;;;;;;6195945;28;20034;-74
2022/02/21 09:38:59;;;;;;;13.15;2.28;;;12.60;56.80;;;;;;6195339;28;20038;-74
2022/02/21 09:42:01;;;;;;;7.15;1.98;;;12.70;56.50;;;;;;6195777;28;20034;-73
2022/02/21 09:45:03;;;;;;;4.80;1.02;;;12.90;56.30;;;;;;6183322;28;20129;-72
2022/02/21 09:48:05;;;;;;;13.30;1.45;;;12.90;55.90;;;;;;6198068;28;20431;-72
2022/02/21 09:51:07;;;;;;;9.38;1.33;;;13.00;55.20;;;;;;6196152;28;20040;-74
2022/02/21 09:54:11;;;;;;;9.23;1.67;;;13.00;54.30;;;;;;6196827;28;20046;-73
2022/02/21 09:57:16;;;;;;;12.30;1.25;;;13.00;54.10;;;;;;6211865;28;20046;-73
2022/02/21 10:00:17;;;;;;;11.85;2.10;;;13.00;53.40;;;;;;6197188;28;20035;-73
2022/02/21 10:03:36;;;;;;;9.07;1.60;;;12.90;52.30;;;;;;6196262;28;20089;-74
2022/02/21 10:06:36;;;;;;;;;;;12.90;52.10;;;;;;6209592;28;20490;-71
2022/02/21 10:09:42;;;;;;;10.77;1.33;;;12.90;52.00;;;;;;6193399;28;19918;-73
2022/02/21 10:12:47;;;;;;;14.50;1.85;;;13.00;51.40;;;;;;6191138;28;20182;-72
2022/02/21 10:15:48;;;;;;;14.23;1.60;;;13.00;50.80;;;;;;6212568;28;20045;-72
2022/02/21 10:18:48;;;;;;;10.07;2.20;;;13.10;50.80;;;;;;6209583;28;20092;-72
2022/02/21 10:21:59;;;;;;;7.07;1.73;;;13.10;50.30;;;;;;6196351;28;20042;-72
2022/02/21 10:25:00;;;;;;;9.77;1.15;;;13.10;50.30;;;;;;6196318;28;20062;-72
2022/02/21 10:28:01;;;;;;;8.73;1.65;;;13.20;49.60;;;;;;6195779;28;20042;-73
2022/02/21 10:31:23;;;;;;;13.23;2.45;;;13.20;49.10;;;;;;6194707;28;20034;-72
2022/02/21 10:34:33;;;;;;;11.68;1.48;;;13.20;48.80;;;;;;6192742;28;20494;-71
2022/02/21 10:37:42;;;;;;;4.18;1.58;;;13.10;48.10;;;;;;6195101;28;20412;-72
2022/02/21 10:40:43;;;;;;;12.07;2.03;;;13.10;47.50;;;;;;6199836;28;20034;-73
2022/02/21 10:43:43;;;;;;;13.05;1.77;;;13.20;48.00;;;;;;6195405;28;20438;-72
2022/02/21 10:47:09;;;;;;;22.63;2.03;;;13.30;48.10;;;;;;6197471;28;20085;-73
2022/02/21 10:50:10;;;;;;;12.18;2.80;;;13.50;48.20;;;;;;6206530;28;20495;-73
2022/02/21 10:53:13;;;;;;;20.27;2.03;;;13.60;48.40;;;;;;6190549;28;20042;-73
2022/02/21 10:56:16;;;;;;;15.30;1.85;;;13.70;46.60;;;;;;6194571;28;20475;-72
2022/02/21 10:59:21;;;;;;;14.95;2.08;;;13.90;46.00;;;;;;6206918;28;20062;-72
2022/02/21 11:02:22;;;;;;;11.63;1.60;;;13.90;45.70;;;;;;6194676;28;20034;-73
2022/02/21 11:05:23;;;;;;;23.60;2.78;;;14.00;45.70;;;;;;6194632;28;20039;-73
2022/02/21 11:08:28;;;;;;;12.38;2.38;;;14.10;45.60;;;;;;6210313;28;20039;-73
2022/02/21 11:11:31;;;;;;;27.17;2.53;;;14.30;45.60;;;;;;6179463;28;20046;-73
2022/02/21 11:14:34;;;;;;;22.10;2.72;;;14.60;45.30;;;;;;6191827;28;20057;-73
2022/02/21 11:17:37;;;;;;;17.92;2.22;;;14.70;44.40;;;;;;6191637;28;20038;-72
2022/02/21 11:20:38;;;;;;;25.08;3.28;;;14.80;44.60;;;;;;6215660;28;20030;-73
2022/02/21 11:23:40;;;;;;;8.63;1.77;;;15.00;44.60;;;;;;6180916;28;20244;-73
2022/02/21 11:26:57;;;;;;;12.75;1.88;;;15.10;44.30;;;;;;6198960;28;20030;-72
2022/02/21 11:30:05;;;;;;;13.15;1.85;;;15.30;43.80;;;;;;6198618;28;20030;-74
2022/02/21 11:33:18;;;;;;;18.00;2.78;;;15.60;41.70;;;;;;6198411;28;20030;-73
2022/02/21 11:36:20;;;;;;;8.73;1.10;;;15.70;41.30;;;;;;6196557;28;20046;-73
2022/02/21 11:39:29;;;;;;;12.27;1.65;;;15.60;41.10;;;;;;6193994;28;20039;-73
2022/02/21 11:42:35;;;;;;;11.77;1.55;;;15.50;42.20;;;;;;6198592;28;20100;-74
2022/02/21 11:45:36;;;;;;;6.18;1.33;;;15.30;43.10;;;;;;6198930;28;20121;-73
2022/02/21 11:48:57;;;;;;;20.02;6.85;;;15.10;43.80;;;;;;6197939;28;20360;-73
2022/02/21 11:52:29;;;;;;;6.82;1.50;;;15.10;44.30;;;;;;6197564;28;20050;-73
2022/02/21 11:55:40;;;;;;;4.80;1.10;;;15.00;44.60;;;;;;6207211;28;20034;-73
2022/02/21 11:58:45;;;;;;;8.27;1.35;;;14.70;45.10;;;;;;6194948;28;20475;-74
2022/02/21 12:01:49;;;;;;;6.22;1.67;;;14.50;45.80;;;;;;6198356;28;20026;-74
2022/02/21 12:04:57;;;;;;;6.97;1.30;;;14.20;46.40;;;;;;6199149;28;20092;-73
2022/02/21 12:07:58;;;;;;;5.53;1.77;;;14.10;47.50;;;;;;6198044;28;20050;-72
2022/02/21 12:11:02;;;;;;;10.30;2.05;;;13.90;47.20;;;;;;6183314;28;20138;-73
2022/02/21 12:14:12;;;;;;;18.88;1.88;;;13.90;47.40;;;;;;6181567;28;20050;-72
2022/02/21 12:17:13;;;;;;;13.20;2.10;;;13.70;47.50;;;;;;6197260;28;20130;-73
2022/02/21 12:20:43;;;;;;;5.85;1.25;;;13.70;47.60;;;;;;6197925;28;20202;-73
2022/02/21 12:23:52;;;;;;;3.75;1.25;;;13.70;47.70;;;;;;6201224;28;20042;-72
2022/02/21 12:27:11;;;;;;;9.68;2.22;;;13.70;48.00;;;;;;6208060;28;20030;-73
2022/02/21 12:30:12;;;;;;;;;;;13.80;48.20;;;;;;6195677;28;20035;-72
2022/02/21 12:33:37;;;;;;;10.27;1.70;;;13.70;48.20;;;;;;6212013;28;20377;-73
2022/02/21 12:36:48;;;;;;;13.30;1.75;;;13.60;48.20;;;;;;6193857;28;20034;-73
2022/02/21 12:39:49;;;;;;;15.73;2.35;;;13.50;48.30;;;;;;6197918;28;20073;-73
2022/02/21 12:42:57;;;;;;;9.93;2.00;;;13.30;48.90;;;;;;6197178;28;20537;-74
2022/02/21 12:45:58;;;;;;;8.93;1.75;;;13.00;49.20;;;;;;6196479;28;20045;-73
2022/02/21 12:48:59;;;;;;;13.38;2.20;;;12.90;49.20;;;;;;6212486;28;20057;-73
2022/02/21 12:52:08;;;;;;;8.48;1.40;;;12.90;49.70;;;;;;6183228;28;20042;-73
2022/02/21 12:55:15;;;;;;;6.15;1.55;;;12.80;50.00;;;;;;6201663;28;20114;-73
2022/02/21 12:58:16;;;;;;;11.30;1.27;;;12.70;50.00;;;;;;6195171;28;20042;-72
2022/02/21 13:01:20;;;;;;;9.57;1.90;;;12.70;50.20;;;;;;6197705;28;20039;-73
2022/02/21 13:04:22;;;;;;;11.00;1.65;;;12.70;50.20;;;;;;6178664;28;20101;-72
2022/02/21 13:07:27;;;;;;;7.35;1.48;;;12.70;50.30;;;;;;6179265;28;20030;-73
2022/02/21 13:10:41;;;;;;;16.13;2.25;;;12.80;50.50;;;;;;6210852;28;20043;-72
2022/02/21 13:13:45;;;;;;;9.48;1.77;;;12.70;50.80;;;;;;6196880;28;20038;-72
2022/02/21 13:16:58;;;;;;;12.02;1.58;;;12.60;51.00;;;;;;6193652;28;20435;-74
2022/02/21 13:20:01;;;;;;;9.85;1.38;;;12.50;51.30;;;;;;6194272;28;20105;-73
2022/02/21 13:23:03;;;;;;;15.23;1.45;;;12.40;51.60;;;;;;6197483;28;20034;-73
2022/02/21 13:26:04;;;;;;;9.63;1.50;;;12.30;52.00;;;;;;6178355;28;20122;-73
2022/02/21 13:29:05;;;;;;;6.97;1.95;;;12.10;52.60;;;;;;6196332;28;20464;-72
2022/02/21 13:32:25;;;;;;;11.90;1.50;;;12.00;53.00;;;;;;6212191;28;20137;-72
2022/02/21 13:35:26;;;;;;;7.80;1.42;;;11.90;53.40;;;;;;6175581;28;20467;-73
2022/02/21 13:38:29;;;;;;;4.30;1.10;;;11.90;53.70;;;;;;6193586;28;20105;-73
2022/02/21 13:41:46;;;;;;;10.25;1.52;;;11.90;53.70;;;;;;6190187;28;20140;-73
2022/02/21 13:44:48;;;;;;;3.58;1.25;;;11.90;54.00;;;;;;6186934;28;20554;-72
2022/02/21 13:48:04;;;;;;;9.23;1.65;;;11.90;54.30;;;;;;6194889;28;20041;-73
2022/02/21 13:51:15;;;;;;;8.07;1.08;;;11.90;54.40;;;;;;6191950;28;20042;-72
2022/02/21 13:54:28;;;;;;;5.95;1.40;;;11.90;54.60;;;;;;6191868;28;20121;-73
2022/02/21 13:57:29;;;;;;;8.68;2.00;;;11.90;54.70;;;;;;6192643;28;20038;-73
2022/02/21 14:00:47;;;;;;;10.27;1.25;;;11.90;54.60;;;;;;6208712;28;20042;-73
2022/02/21 14:03:53;;;;;;;13.30;1.40;;;11.90;54.70;;;;;;6191245;28;20043;-73
2022/02/21 14:06:54;;;;;;;9.73;1.45;;;11.80;54.30;;;;;;6184163;28;20042;-73
2022/02/21 14:10:15;;;;;;;9.15;1.10;;;11.60;54.50;;;;;;6186147;28;20038;-74
2022/02/21 14:13:15;;;;;;;5.32;1.55;;;11.50;55.00;;;;;;6197082;28;20057;-73
2022/02/21 14:16:17;;;;;;;8.93;1.13;;;11.40;55.30;;;;;;6201013;28;20515;-73
2022/02/21 14:19:20;;;;;;;11.63;1.42;;;11.40;55.70;;;;;;6186222;28;20479;-75
2022/02/21 14:22:27;;;;;;;16.17;1.98;;;11.20;55.80;;;;;;6202784;28;20049;-74
2022/02/21 14:25:28;;;;;;;15.70;1.43;;;11.30;56.20;;;;;;6187121;28;20077;-73
2022/02/21 14:28:29;;;;;;;7.40;1.30;;;11.40;56.20;;;;;;6168380;28;20038;-73
2022/02/21 14:31:30;;;;;;;10.65;1.67;;;11.40;56.30;;;;;;6185574;28;20077;-73
2022/02/21 14:34:31;;;;;;;8.32;1.10;;;11.50;56.40;;;;;;6162881;28;20136;-73
2022/02/21 14:37:31;;;;;;;5.85;1.63;;;11.50;56.50;;;;;;6185446;28;20364;-74
2022/02/21 14:40:33;;;;;;;7.53;1.70;;;11.50;56.60;;;;;;6186929;28;20045;-73
2022/02/21 14:43:34;;;;;;;9.68;1.73;;;11.50;56.70;;;;;;6185147;28;20423;-73
2022/02/21 14:46:35;;;;;;;10.40;1.48;;;11.50;56.80;;;;;;6200979;28;20402;-73
2022/02/21 14:49:38;;;;;;;4.53;1.27;;;11.60;56.80;;;;;;6180834;28;20042;-73
2022/02/21 14:52:39;;;;;;;8.70;2.05;;;11.70;56.70;;;;;;6189392;28;20500;-73
2022/02/21 14:55:46;;;;;;;9.90;2.20;;;11.70;56.70;;;;;;6189628;28;20050;-74
2022/02/21 14:58:48;;;;;;;12.05;1.95;;;11.70;56.60;;;;;;6190447;28;20053;-73
2022/02/21 15:01:49;;;;;;;8.40;2.00;;;11.70;56.70;;;;;;6189142;28;20076;-73
2022/02/21 15:04:50;;;;;;;12.00;1.48;;;11.70;56.70;;;;;;6190259;28;21529;-73
2022/02/21 15:07:51;;;;;;;11.05;1.77;;;11.70;56.60;;;;;;6190648;28;20526;-73
2022/02/21 15:10:52;;;;;;;16.45;1.70;;;11.70;56.50;;;;;;6189385;28;20046;-73
2022/02/21 15:13:54;;;;;;;4.53;1.30;;;11.70;56.40;;;;;;6187514;28;20042;-73
2022/02/21 15:16:55;;;;;;;5.97;1.67;;;11.70;56.40;;;;;;6189806;28;20050;-73
2022/02/21 15:19:56;;;;;;;8.02;1.67;;;11.80;56.40;;;;;;6204929;28;20373;-73
2022/02/21 15:22:57;;;;;;;7.10;1.60;;;11.80;56.40;;;;;;6194244;28;20119;-73
2022/02/21 15:25:58;;;;;;;11.80;1.50;;;11.80;56.40;;;;;;6197517;28;20823;-73
2022/02/21 15:29:00;;;;;;;4.68;1.27;;;11.80;56.40;;;;;;6196960;28;20038;-73
2022/02/21 15:32:01;;;;;;;9.68;1.23;;;11.70;56.50;;;;;;6201896;28;20042;-73
2022/02/21 15:35:05;;;;;;;3.38;1.27;;;11.60;56.80;;;;;;6211740;28;20128;-74
2022/02/21 15:38:06;;;;;;;6.72;1.60;;;11.60;57.10;;;;;;6194516;28;20497;-73
2022/02/21 15:41:09;;;;;;;10.02;1.50;;;11.40;57.30;;;;;;6197899;28;20046;-74
2022/02/21 15:44:12;;;;;;;8.40;1.35;;;11.40;57.70;;;;;;6198067;28;20097;-73
2022/02/21 15:47:13;;;;;;;6.78;1.77;;;11.30;57.80;;;;;;6188236;28;20248;-73
2022/02/21 15:50:14;;;;;;;2.05;0.63;;;11.20;57.90;;;;;;6199654;28;20042;-73